sensor_id;sensor_type;location;lat;lon;timestamp;temperature;humidity
21340;DHT22;10828;47.064;15.422;2023-07-22T11:10:28;24.60;99.90
21340;DHT22;10828;47.064;15.422;2023-07-22T11:12:53;24.50;99.90
21340;DHT22;10828;47.064;15.422;2023-07-22T11:15:19;24.40;99.90
21340;DHT22;10828;47.064;15.422;2023-07-22T11:17:45;24.30;99.90
21340;DHT22;10828;47.064;15.422;2023-07-22T11:20:11;24.40;99.90
21340;DHT22;10828;47.064;15.422;2023-07-22T11:22:41;24.30;99.90
21340;DHT22;10828;47.064;15.422;2023-07-22T11:25:07;24.40;99.90
21340;DHT22;10828;47.064;15.422;2023-07-22T11:27:35;24.40;99.90
21340;DHT22;10828;47.064;15.422;2023-07-22T11:30:03;24.50;99.90
21340;DHT22;10828;47.064;15.422;2023-07-22T11:32:29;24.80;99.90
21340;DHT22;10828;47.064;15.422;2023-07-22T11:34:55;25.00;99.90
21340;DHT22;10828;47.064;15.422;2023-07-22T11:37:21;24.80;99.90
21340;DHT22;10828;47.064;15.422;2023-07-22T11:39:46;24.80;99.90
21340;DHT22;10828;47.064;15.422;2023-07-22T11:42:19;24.70;99.90
21340;DHT22;10828;47.064;15.422;2023-07-22T11:44:44;24.70;99.90
21340;DHT22;10828;47.064;15.422;2023-07-22T11:47:10;24.60;99.90
21340;DHT22;10828;47.064;15.422;2023-07-22T11:49:41;24.80;99.90
21340;DHT22;10828;47.064;15.422;2023-07-22T11:52:09;24.90;99.90
21340;DHT22;10828;47.064;15.422;2023-07-22T11:54:39;25.00;99.90
21340;DHT22;10828;47.064;15.422;2023-07-22T11:57:19;24.70;99.90
21340;DHT22;10828;47.064;15.422;2023-07-22T11:59:56;24.60;99.90
21340;DHT22;10828;47.064;15.422;2023-07-22T12:02:26;24.40;99.90
21340;DHT22;10828;47.064;15.422;2023-07-22T12:09:52;24.30;99.90
21340;DHT22;10828;47.064;15.422;2023-07-22T12:12:19;24.20;99.90
21340;DHT22;10828;47.064;15.422;2023-07-22T12:14:44;24.10;99.90
21340;DHT22;10828;47.064;15.422;2023-07-22T12:17:10;24.10;99.90
21340;DHT22;10828;47.064;15.422;2023-07-22T12:19:51;24.20;99.90
21340;DHT22;10828;47.064;15.422;2023-07-22T12:22:18;24.20;99.90
21340;DHT22;10828;47.064;15.422;2023-07-22T12:24:43;24.20;99.90
21340;DHT22;10828;47.064;15.422;2023-07-22T12:27:13;24.10;99.90
21340;DHT22;10828;47.064;15.422;2023-07-22T12:29:39;24.20;99.90
21340;DHT22;10828;47.064;15.422;2023-07-22T12:32:04;24.10;99.90
21340;DHT22;10828;47.064;15.422;2023-07-22T12:34:31;24.20;99.90
21340;DHT22;10828;47.064;15.422;2023-07-22T12:36:58;24.40;99.90
21340;DHT22;10828;47.064;15.422;2023-07-22T12:39:24;24.40;99.90
21340;DHT22;10828;47.064;15.422;2023-07-22T12:41:54;24.50;99.90
21340;DHT22;10828;47.064;15.422;2023-07-22T12:44:19;24.70;99.90
21340;DHT22;10828;47.064;15.422;2023-07-22T12:46:46;25.00;99.90
21340;DHT22;10828;47.064;15.422;2023-07-22T12:49:11;25.20;99.90
21340;DHT22;10828;47.064;15.422;2023-07-22T12:51:37;25.20;99.90
21340;DHT22;10828;47.064;15.422;2023-07-22T12:54:04;25.30;99.90
21340;DHT22;10828;47.064;15.422;2023-07-22T12:56:29;25.30;99.90
21340;DHT22;10828;47.064;15.422;2023-07-22T12:58:58;25.40;99.90
21340;DHT22;10828;47.064;15.422;2023-07-22T13:01:23;25.50;99.90
21340;DHT22;10828;47.064;15.422;2023-07-22T13:03:49;25.60;99.90
21340;DHT22;10828;47.064;15.422;2023-07-22T13:06:16;25.70;99.90
21340;DHT22;10828;47.064;15.422;2023-07-22T13:08:42;25.80;99.90
21340;DHT22;10828;47.064;15.422;2023-07-22T13:11:07;25.60;99.90
21340;DHT22;10828;47.064;15.422;2023-07-22T13:13:33;25.30;99.90
21340;DHT22;10828;47.064;15.422;2023-07-22T13:16:01;25.10;99.90
21340;DHT22;10828;47.064;15.422;2023-07-22T13:18:27;24.90;99.90
21340;DHT22;10828;47.064;15.422;2023-07-22T13:20:53;24.80;99.90
21340;DHT22;10828;47.064;15.422;2023-07-22T13:23:19;24.60;99.90
21340;DHT22;10828;47.064;15.422;2023-07-22T13:25:45;24.60;99.90
21340;DHT22;10828;47.064;15.422;2023-07-22T13:28:12;24.40;99.90
21340;DHT22;10828;47.064;15.422;2023-07-22T13:30:38;24.20;99.90
21340;DHT22;10828;47.064;15.422;2023-07-22T13:33:03;24.20;99.90
21340;DHT22;10828;47.064;15.422;2023-07-22T13:35:30;24.20;99.90
21340;DHT22;10828;47.064;15.422;2023-07-22T13:37:56;24.20;99.90
21340;DHT22;10828;47.064;15.422;2023-07-22T13:40:22;24.20;99.90
21340;DHT22;10828;47.064;15.422;2023-07-22T13:42:48;24.10;99.90
21340;DHT22;10828;47.064;15.422;2023-07-22T13:45:13;23.90;99.90
21340;DHT22;10828;47.064;15.422;2023-07-22T13:47:41;23.70;99.90
21340;DHT22;10828;47.064;15.422;2023-07-22T13:50:07;23.60;99.90
21340;DHT22;10828;47.064;15.422;2023-07-22T13:52:35;23.50;99.90
21340;DHT22;10828;47.064;15.422;2023-07-22T13:55:01;23.40;99.90
21340;DHT22;10828;47.064;15.422;2023-07-22T13:57:28;23.40;99.90
21340;DHT22;10828;47.064;15.422;2023-07-22T13:59:54;23.30;99.90
21340;DHT22;10828;47.064;15.422;2023-07-22T14:02:20;23.30;99.90
21340;DHT22;10828;47.064;15.422;2023-07-22T14:04:45;23.30;99.90
21340;DHT22;10828;47.064;15.422;2023-07-22T14:07:11;23.10;99.90
21340;DHT22;10828;47.064;15.422;2023-07-22T14:09:37;23.10;99.90
21340;DHT22;10828;47.064;15.422;2023-07-22T14:12:03;23.00;99.90
21340;DHT22;10828;47.064;15.422;2023-07-22T14:14:33;22.90;99.90
21340;DHT22;10828;47.064;15.422;2023-07-22T14:17:00;23.00;99.90
21340;DHT22;10828;47.064;15.422;2023-07-22T14:19:26;23.00;99.90
21340;DHT22;10828;47.064;15.422;2023-07-22T14:21:53;23.00;99.90
21340;DHT22;10828;47.064;15.422;2023-07-22T14:24:21;23.00;99.90
21340;DHT22;10828;47.064;15.422;2023-07-22T14:26:47;22.90;99.90
21340;DHT22;10828;47.064;15.422;2023-07-22T14:29:14;22.90;99.90
21340;DHT22;10828;47.064;15.422;2023-07-22T14:31:42;22.80;99.90
21340;DHT22;10828;47.064;15.422;2023-07-22T14:34:08;22.60;99.90
21340;DHT22;10828;47.064;15.422;2023-07-22T14:36:34;22.50;99.90
21340;DHT22;10828;47.064;15.422;2023-07-22T14:39:07;22.40;99.90
21340;DHT22;10828;47.064;15.422;2023-07-22T14:41:33;22.20;99.90
21340;DHT22;10828;47.064;15.422;2023-07-22T14:43:59;22.10;99.90
21340;DHT22;10828;47.064;15.422;2023-07-22T14:46:25;22.10;99.90
21340;DHT22;10828;47.064;15.422;2023-07-22T14:48:52;22.10;99.90
21340;DHT22;10828;47.064;15.422;2023-07-22T14:51:17;22.10;99.90
21340;DHT22;10828;47.064;15.422;2023-07-22T14:53:44;22.00;99.90
21340;DHT22;10828;47.064;15.422;2023-07-22T14:56:11;22.00;99.90
21340;DHT22;10828;47.064;15.422;2023-07-22T14:58:42;21.90;99.90
21340;DHT22;10828;47.064;15.422;2023-07-22T15:01:14;21.90;99.90
21340;DHT22;10828;47.064;15.422;2023-07-22T15:03:40;22.00;99.90
21340;DHT22;10828;47.064;15.422;2023-07-22T15:06:08;22.10;99.90
21340;DHT22;10828;47.064;15.422;2023-07-22T15:08:33;22.20;99.90
21340;DHT22;10828;47.064;15.422;2023-07-22T15:11:00;22.20;99.90
21340;DHT22;10828;47.064;15.422;2023-07-22T15:13:26;22.30;99.90
21340;DHT22;10828;47.064;15.422;2023-07-22T15:15:54;22.30;99.90
21340;DHT22;10828;47.064;15.422;2023-07-22T15:18:22;22.30;99.90
21340;DHT22;10828;47.064;15.422;2023-07-22T15:20:48;21.90;99.90
21340;DHT22;10828;47.064;15.422;2023-07-22T15:23:15;21.60;99.90
21340;DHT22;10828;47.064;15.422;2023-07-22T15:25:42;21.40;99.90
21340;DHT22;10828;47.064;15.422;2023-07-22T15:28:09;20.60;99.90
21340;DHT22;10828;47.064;15.422;2023-07-22T15:30:36;20.00;99.90
21340;DHT22;10828;47.064;15.422;2023-07-22T15:33:02;19.80;99.90
21340;DHT22;10828;47.064;15.422;2023-07-22T15:35:28;19.70;99.90
21340;DHT22;10828;47.064;15.422;2023-07-22T15:37:54;19.60;99.90
21340;DHT22;10828;47.064;15.422;2023-07-22T15:40:20;19.60;99.90
21340;DHT22;10828;47.064;15.422;2023-07-22T15:42:47;19.70;99.90
21340;DHT22;10828;47.064;15.422;2023-07-22T15:45:13;19.80;99.90
21340;DHT22;10828;47.064;15.422;2023-07-22T15:47:40;19.80;99.90
21340;DHT22;10828;47.064;15.422;2023-07-22T15:50:05;19.70;99.90
21340;DHT22;10828;47.064;15.422;2023-07-22T15:52:32;19.90;99.90
21340;DHT22;10828;47.064;15.422;2023-07-22T15:54:59;20.00;99.90
21340;DHT22;10828;47.064;15.422;2023-07-22T15:57:24;20.10;99.90
21340;DHT22;10828;47.064;15.422;2023-07-22T15:59:50;20.20;99.90
21340;DHT22;10828;47.064;15.422;2023-07-22T16:02:16;20.20;99.90
21340;DHT22;10828;47.064;15.422;2023-07-22T16:04:42;20.30;99.90
21340;DHT22;10828;47.064;15.422;2023-07-22T16:07:08;20.40;99.90
21340;DHT22;10828;47.064;15.422;2023-07-22T16:09:34;20.40;99.90
21340;DHT22;10828;47.064;15.422;2023-07-22T16:12:02;20.60;99.90
21340;DHT22;10828;47.064;15.422;2023-07-22T16:14:28;20.60;99.90
21340;DHT22;10828;47.064;15.422;2023-07-22T16:16:54;20.60;99.90
21340;DHT22;10828;47.064;15.422;2023-07-22T16:19:19;20.30;99.90
21340;DHT22;10828;47.064;15.422;2023-07-22T16:21:45;20.40;99.90
21340;DHT22;10828;47.064;15.422;2023-07-22T16:24:12;20.50;99.90
21340;DHT22;10828;47.064;15.422;2023-07-22T16:26:38;20.40;99.90
21340;DHT22;10828;47.064;15.422;2023-07-22T16:29:05;20.30;99.90
21340;DHT22;10828;47.064;15.422;2023-07-22T16:31:31;20.30;99.90
21340;DHT22;10828;47.064;15.422;2023-07-22T16:33:56;20.20;99.90
21340;DHT22;10828;47.064;15.422;2023-07-22T16:36:25;20.20;99.90
21340;DHT22;10828;47.064;15.422;2023-07-22T16:38:50;20.20;99.90
21340;DHT22;10828;47.064;15.422;2023-07-22T16:41:16;20.10;99.90
21340;DHT22;10828;47.064;15.422;2023-07-22T16:43:42;20.10;99.90
21340;DHT22;10828;47.064;15.422;2023-07-22T16:46:13;20.00;99.90
21340;DHT22;10828;47.064;15.422;2023-07-22T16:48:39;19.90;99.90
21340;DHT22;10828;47.064;15.422;2023-07-22T16:51:05;19.80;99.90
21340;DHT22;10828;47.064;15.422;2023-07-22T16:53:31;19.80;99.90
21340;DHT22;10828;47.064;15.422;2023-07-22T16:55:56;19.70;99.90
21340;DHT22;10828;47.064;15.422;2023-07-22T16:58:23;19.60;99.90
21340;DHT22;10828;47.064;15.422;2023-07-22T17:00:48;19.60;99.90
21340;DHT22;10828;47.064;15.422;2023-07-22T17:03:14;19.60;99.90
21340;DHT22;10828;47.064;15.422;2023-07-22T17:05:41;19.70;99.90
21340;DHT22;10828;47.064;15.422;2023-07-22T17:08:07;19.80;99.90
21340;DHT22;10828;47.064;15.422;2023-07-22T17:10:33;19.80;99.90
21340;DHT22;10828;47.064;15.422;2023-07-22T17:12:58;19.90;99.90
21340;DHT22;10828;47.064;15.422;2023-07-22T17:15:24;20.00;99.90
21340;DHT22;10828;47.064;15.422;2023-07-22T17:17:50;20.00;99.90
21340;DHT22;10828;47.064;15.422;2023-07-22T17:20:16;20.10;99.90
21340;DHT22;10828;47.064;15.422;2023-07-22T17:22:43;20.10;99.90
21340;DHT22;10828;47.064;15.422;2023-07-22T17:25:09;20.10;99.90
21340;DHT22;10828;47.064;15.422;2023-07-22T17:27:35;20.10;99.90
21340;DHT22;10828;47.064;15.422;2023-07-22T17:30:01;20.10;99.90
21340;DHT22;10828;47.064;15.422;2023-07-22T17:32:28;20.20;99.90
21340;DHT22;10828;47.064;15.422;2023-07-22T17:34:54;20.10;99.90
21340;DHT22;10828;47.064;15.422;2023-07-22T17:37:22;20.10;99.90
21340;DHT22;10828;47.064;15.422;2023-07-22T17:39:49;20.10;99.90
21340;DHT22;10828;47.064;15.422;2023-07-22T17:42:16;20.10;99.90
21340;DHT22;10828;47.064;15.422;2023-07-22T17:44:43;20.10;99.90
21340;DHT22;10828;47.064;15.422;2023-07-22T17:47:09;20.00;99.90
21340;DHT22;10828;47.064;15.422;2023-07-22T17:49:35;20.00;99.90
21340;DHT22;10828;47.064;15.422;2023-07-22T17:52:03;19.90;99.90
21340;DHT22;10828;47.064;15.422;2023-07-22T17:54:29;20.00;99.90
21340;DHT22;10828;47.064;15.422;2023-07-22T17:56:56;20.00;99.90
21340;DHT22;10828;47.064;15.422;2023-07-22T17:59:24;19.90;99.90
21340;DHT22;10828;47.064;15.422;2023-07-22T18:01:50;19.90;99.90
21340;DHT22;10828;47.064;15.422;2023-07-22T18:04:16;19.90;99.90
21340;DHT22;10828;47.064;15.422;2023-07-22T18:06:42;19.80;99.90
21340;DHT22;10828;47.064;15.422;2023-07-22T18:09:08;19.80;99.90
21340;DHT22;10828;47.064;15.422;2023-07-22T18:11:34;19.80;99.90
21340;DHT22;10828;47.064;15.422;2023-07-22T18:14:00;19.70;99.90
21340;DHT22;10828;47.064;15.422;2023-07-22T18:16:27;19.60;99.90
21340;DHT22;10828;47.064;15.422;2023-07-22T18:18:53;19.60;99.90
21340;DHT22;10828;47.064;15.422;2023-07-22T18:21:20;19.60;99.90
21340;DHT22;10828;47.064;15.422;2023-07-22T18:23:46;19.50;99.90
21340;DHT22;10828;47.064;15.422;2023-07-22T18:26:12;19.40;99.90
21340;DHT22;10828;47.064;15.422;2023-07-22T18:28:41;19.20;99.90
21340;DHT22;10828;47.064;15.422;2023-07-22T18:31:09;19.20;99.90
21340;DHT22;10828;47.064;15.422;2023-07-22T18:33:35;19.10;99.90
21340;DHT22;10828;47.064;15.422;2023-07-22T18:36:02;19.00;99.90
21340;DHT22;10828;47.064;15.422;2023-07-22T18:38:30;18.90;99.90
21340;DHT22;10828;47.064;15.422;2023-07-22T18:41:00;19.00;99.90
21340;DHT22;10828;47.064;15.422;2023-07-22T18:43:26;18.90;99.90
21340;DHT22;10828;47.064;15.422;2023-07-22T18:45:53;18.80;99.90
21340;DHT22;10828;47.064;15.422;2023-07-22T18:48:19;18.80;99.90
21340;DHT22;10828;47.064;15.422;2023-07-22T18:50:45;18.80;99.90
21340;DHT22;10828;47.064;15.422;2023-07-22T18:53:11;18.80;99.90
21340;DHT22;10828;47.064;15.422;2023-07-22T18:55:38;18.70;99.90
21340;DHT22;10828;47.064;15.422;2023-07-22T18:58:04;18.80;99.90
21340;DHT22;10828;47.064;15.422;2023-07-22T19:00:31;18.90;99.90
21340;DHT22;10828;47.064;15.422;2023-07-22T19:02:57;18.80;99.90
21340;DHT22;10828;47.064;15.422;2023-07-22T19:05:23;18.70;99.90
21340;DHT22;10828;47.064;15.422;2023-07-22T19:07:50;18.70;99.90
21340;DHT22;10828;47.064;15.422;2023-07-22T19:10:17;18.70;99.90
21340;DHT22;10828;47.064;15.422;2023-07-22T19:12:46;18.70;99.90
21340;DHT22;10828;47.064;15.422;2023-07-22T19:15:15;18.70;99.90
21340;DHT22;10828;47.064;15.422;2023-07-22T19:17:41;18.70;99.90
21340;DHT22;10828;47.064;15.422;2023-07-22T19:20:08;18.70;99.90
21340;DHT22;10828;47.064;15.422;2023-07-22T19:22:34;18.70;99.90
21340;DHT22;10828;47.064;15.422;2023-07-22T19:25:00;18.70;99.90
21340;DHT22;10828;47.064;15.422;2023-07-22T19:27:27;18.90;99.90
21340;DHT22;10828;47.064;15.422;2023-07-22T19:29:55;18.90;99.90
21340;DHT22;10828;47.064;15.422;2023-07-22T19:32:23;18.90;99.90
21340;DHT22;10828;47.064;15.422;2023-07-22T19:34:50;18.90;99.90
21340;DHT22;10828;47.064;15.422;2023-07-22T19:37:17;19.00;99.90
21340;DHT22;10828;47.064;15.422;2023-07-22T19:39:44;19.00;99.90
21340;DHT22;10828;47.064;15.422;2023-07-22T19:42:13;19.00;99.90
21340;DHT22;10828;47.064;15.422;2023-07-22T19:44:40;19.00;99.90
21340;DHT22;10828;47.064;15.422;2023-07-22T19:47:07;19.10;99.90
21340;DHT22;10828;47.064;15.422;2023-07-22T19:49:33;19.20;99.90
21340;DHT22;10828;47.064;15.422;2023-07-22T19:51:59;19.10;99.90
21340;DHT22;10828;47.064;15.422;2023-07-22T19:54:25;19.00;99.90
21340;DHT22;10828;47.064;15.422;2023-07-22T19:56:55;18.90;99.90
21340;DHT22;10828;47.064;15.422;2023-07-22T19:59:23;18.90;99.90
21340;DHT22;10828;47.064;15.422;2023-07-22T20:01:50;19.00;99.90
21340;DHT22;10828;47.064;15.422;2023-07-22T20:04:18;19.00;99.90
21340;DHT22;10828;47.064;15.422;2023-07-22T20:06:44;19.00;99.90
21340;DHT22;10828;47.064;15.422;2023-07-22T20:09:11;18.90;99.90
21340;DHT22;10828;47.064;15.422;2023-07-22T20:11:38;18.90;99.90
21340;DHT22;10828;47.064;15.422;2023-07-22T20:14:06;19.00;99.90
21340;DHT22;10828;47.064;15.422;2023-07-22T20:16:33;19.10;99.90
21340;DHT22;10828;47.064;15.422;2023-07-22T20:18:59;19.20;99.90
21340;DHT22;10828;47.064;15.422;2023-07-22T20:21:26;19.20;99.90
21340;DHT22;10828;47.064;15.422;2023-07-22T20:23:52;19.20;99.90
21340;DHT22;10828;47.064;15.422;2023-07-22T20:26:22;19.10;99.90
21340;DHT22;10828;47.064;15.422;2023-07-22T20:28:48;19.10;99.90
21340;DHT22;10828;47.064;15.422;2023-07-22T20:31:16;19.10;99.90
21340;DHT22;10828;47.064;15.422;2023-07-22T20:33:42;19.10;99.90
21340;DHT22;10828;47.064;15.422;2023-07-22T20:36:08;19.10;99.90
21340;DHT22;10828;47.064;15.422;2023-07-22T20:38:34;19.00;99.90
21340;DHT22;10828;47.064;15.422;2023-07-22T20:41:05;19.00;99.90
21340;DHT22;10828;47.064;15.422;2023-07-22T20:43:34;18.90;99.90
21340;DHT22;10828;47.064;15.422;2023-07-22T20:46:03;19.00;99.90
21340;DHT22;10828;47.064;15.422;2023-07-22T20:48:32;18.90;99.90
21340;DHT22;10828;47.064;15.422;2023-07-22T20:50:58;18.90;99.90
21340;DHT22;10828;47.064;15.422;2023-07-22T20:53:25;18.90;99.90
21340;DHT22;10828;47.064;15.422;2023-07-22T20:56:00;18.90;99.90
21340;DHT22;10828;47.064;15.422;2023-07-22T20:58:34;18.80;99.90
21340;DHT22;10828;47.064;15.422;2023-07-22T21:01:00;18.80;99.90
21340;DHT22;10828;47.064;15.422;2023-07-22T21:03:27;18.70;99.90
21340;DHT22;10828;47.064;15.422;2023-07-22T21:05:58;18.70;99.90
21340;DHT22;10828;47.064;15.422;2023-07-22T21:08:24;18.60;99.90
21340;DHT22;10828;47.064;15.422;2023-07-22T21:10:50;18.60;99.90
21340;DHT22;10828;47.064;15.422;2023-07-22T21:13:17;18.50;99.90
21340;DHT22;10828;47.064;15.422;2023-07-22T21:15:43;18.50;99.90
21340;DHT22;10828;47.064;15.422;2023-07-22T21:18:09;18.50;99.90
21340;DHT22;10828;47.064;15.422;2023-07-22T21:20:35;18.50;99.90
21340;DHT22;10828;47.064;15.422;2023-07-22T21:23:03;18.50;99.90
21340;DHT22;10828;47.064;15.422;2023-07-22T21:25:29;18.50;99.90
21340;DHT22;10828;47.064;15.422;2023-07-22T21:27:54;18.50;99.90
21340;DHT22;10828;47.064;15.422;2023-07-22T21:30:20;18.50;99.90
21340;DHT22;10828;47.064;15.422;2023-07-22T21:32:46;18.50;99.90
21340;DHT22;10828;47.064;15.422;2023-07-22T21:35:12;18.40;99.90
21340;DHT22;10828;47.064;15.422;2023-07-22T21:37:38;18.40;99.90
21340;DHT22;10828;47.064;15.422;2023-07-22T21:40:10;18.40;99.90
21340;DHT22;10828;47.064;15.422;2023-07-22T21:42:38;18.40;99.90
21340;DHT22;10828;47.064;15.422;2023-07-22T21:45:03;18.50;99.90
21340;DHT22;10828;47.064;15.422;2023-07-22T21:47:30;18.40;99.90
21340;DHT22;10828;47.064;15.422;2023-07-22T21:49:56;18.40;99.90
21340;DHT22;10828;47.064;15.422;2023-07-22T21:52:21;18.30;99.90
21340;DHT22;10828;47.064;15.422;2023-07-22T21:54:47;18.30;99.90
21340;DHT22;10828;47.064;15.422;2023-07-22T21:57:12;18.30;99.90
21340;DHT22;10828;47.064;15.422;2023-07-22T21:59:38;18.30;99.90
21340;DHT22;10828;47.064;15.422;2023-07-22T22:02:05;18.30;99.90
21340;DHT22;10828;47.064;15.422;2023-07-22T22:04:31;18.30;99.90
21340;DHT22;10828;47.064;15.422;2023-07-22T22:06:58;18.30;99.90
21340;DHT22;10828;47.064;15.422;2023-07-22T22:09:23;18.30;99.90
21340;DHT22;10828;47.064;15.422;2023-07-22T22:11:49;18.30;99.90
21340;DHT22;10828;47.064;15.422;2023-07-22T22:14:15;18.30;99.90
21340;DHT22;10828;47.064;15.422;2023-07-22T22:16:41;18.30;99.90
21340;DHT22;10828;47.064;15.422;2023-07-22T22:19:07;18.30;99.90
21340;DHT22;10828;47.064;15.422;2023-07-22T22:21:32;18.30;99.90
21340;DHT22;10828;47.064;15.422;2023-07-22T22:23:58;18.30;99.90
21340;DHT22;10828;47.064;15.422;2023-07-22T22:26:23;18.30;99.90
21340;DHT22;10828;47.064;15.422;2023-07-22T22:28:49;18.30;99.90
21340;DHT22;10828;47.064;15.422;2023-07-22T22:31:17;18.30;99.90
21340;DHT22;10828;47.064;15.422;2023-07-22T22:33:42;18.30;99.90
21340;DHT22;10828;47.064;15.422;2023-07-22T22:36:08;18.30;99.90
21340;DHT22;10828;47.064;15.422;2023-07-22T22:38:34;18.20;99.90
21340;DHT22;10828;47.064;15.422;2023-07-22T22:41:00;18.20;99.90
21340;DHT22;10828;47.064;15.422;2023-07-22T22:43:26;18.20;99.90
21340;DHT22;10828;47.064;15.422;2023-07-22T22:45:53;18.20;99.90
21340;DHT22;10828;47.064;15.422;2023-07-22T22:48:18;18.10;99.90
21340;DHT22;10828;47.064;15.422;2023-07-22T22:50:44;18.20;99.90
21340;DHT22;10828;47.064;15.422;2023-07-22T22:53:10;18.20;99.90
21340;DHT22;10828;47.064;15.422;2023-07-22T22:55:36;18.20;99.90
21340;DHT22;10828;47.064;15.422;2023-07-22T22:58:01;18.30;99.90
21340;DHT22;10828;47.064;15.422;2023-07-22T23:00:27;18.20;99.90
21340;DHT22;10828;47.064;15.422;2023-07-22T23:02:55;18.20;99.90
21340;DHT22;10828;47.064;15.422;2023-07-22T23:05:24;18.10;99.90
21340;DHT22;10828;47.064;15.422;2023-07-22T23:07:54;18.10;99.90
21340;DHT22;10828;47.064;15.422;2023-07-22T23:10:19;18.10;99.90
21340;DHT22;10828;47.064;15.422;2023-07-22T23:12:46;18.10;99.90
21340;DHT22;10828;47.064;15.422;2023-07-22T23:15:15;18.10;99.90
21340;DHT22;10828;47.064;15.422;2023-07-22T23:17:40;18.10;99.90
21340;DHT22;10828;47.064;15.422;2023-07-22T23:20:06;18.10;99.90
21340;DHT22;10828;47.064;15.422;2023-07-22T23:22:33;18.10;99.90
21340;DHT22;10828;47.064;15.422;2023-07-22T23:24:59;18.00;99.90
21340;DHT22;10828;47.064;15.422;2023-07-22T23:27:25;18.00;99.90
21340;DHT22;10828;47.064;15.422;2023-07-22T23:29:51;17.90;99.90
21340;DHT22;10828;47.064;15.422;2023-07-22T23:32:17;17.90;99.90
21340;DHT22;10828;47.064;15.422;2023-07-22T23:34:43;17.80;99.90
21340;DHT22;10828;47.064;15.422;2023-07-22T23:37:08;17.80;99.90
21340;DHT22;10828;47.064;15.422;2023-07-22T23:39:34;17.70;99.90
21340;DHT22;10828;47.064;15.422;2023-07-22T23:42:00;17.70;99.90
21340;DHT22;10828;47.064;15.422;2023-07-22T23:44:27;17.70;99.90
21340;DHT22;10828;47.064;15.422;2023-07-22T23:46:52;17.60;99.90
21340;DHT22;10828;47.064;15.422;2023-07-22T23:49:18;17.50;99.90
21340;DHT22;10828;47.064;15.422;2023-07-22T23:51:43;17.50;99.90
21340;DHT22;10828;47.064;15.422;2023-07-22T23:54:11;17.40;99.90
21340;DHT22;10828;47.064;15.422;2023-07-22T23:56:36;17.60;99.90
21340;DHT22;10828;47.064;15.422;2023-07-22T23:59:02;17.50;99.90
